Time;durP1;ratioP1;P1;durP2;ratioP2;P2;SDS_P1;SDS_P2;PMS_P1;PMS_P2;Temp;Humidity;BMP_temperature;BMP_pressure;BME280_temperature;BME280_humidity;BME280_pressure;Samples;Min_cycle;Max_cycle;Signal;HPM_P1;HPM_P2
2022/08/14 00:00:12;;;;;;;2.65;2.17;;;;;;;20.33;44.02;96392.25;6225391;23;20344;-80
2022/08/14 00:02:41;;;;;;;2.60;2.40;;;;;;;20.28;44.05;96392.16;6223980;23;20090;-79
2022/08/14 00:05:13;;;;;;;6.15;2.25;;;;;;;20.24;43.97;96392.91;6225101;23;20067;-84
2022/08/14 00:07:41;;;;;;;2.10;1.85;;;;;;;20.19;44.12;96383.06;6226592;23;20032;-82
2022/08/14 00:10:12;;;;;;;2.85;2.08;;;;;;;20.14;44.30;96388.31;6228813;23;20025;-80
2022/08/14 00:13:00;;;;;;;2.40;2.25;;;;;;;20.10;44.37;96382.72;6229196;23;20051;-80
2022/08/14 00:15:37;;;;;;;2.40;2.20;;;;;;;20.04;44.44;96372.31;6229678;23;20342;-79
2022/08/14 00:18:17;;;;;;;2.45;1.90;;;;;;;19.99;44.20;96375.69;6229080;23;20070;-81
2022/08/14 00:21:05;;;;;;;2.67;2.00;;;;;;;19.94;44.56;96368.50;6228766;23;20077;-81
2022/08/14 00:23:38;;;;;;;2.00;1.90;;;;;;;19.89;44.75;96368.41;6228472;23;20024;-79
2022/08/14 00:26:07;;;;;;;3.88;2.35;;;;;;;19.90;44.83;96362.09;6228402;23;20024;-78
2022/08/14 00:28:48;;;;;;;;;;;;;;;19.95;44.50;96364.78;6227361;23;20024;-82
2022/08/14 00:31:17;;;;;;;2.33;2.13;;;;;;;19.92;44.67;96359.22;6220821;23;19990;-77
2022/08/14 00:33:45;;;;;;;2.50;2.30;;;;;;;19.88;44.69;96352.81;6217049;23;20027;-77
2022/08/14 00:36:20;;;;;;;2.75;2.22;;;;;;;19.85;44.69;96353.28;6217463;23;20107;-77
2022/08/14 00:39:08;;;;;;;3.35;2.28;;;;;;;19.82;44.94;96349.28;6216550;23;20099;-77
2022/08/14 00:41:37;;;;;;;2.38;2.10;;;;;;;19.81;44.94;96354.81;6216355;23;20531;-77
2022/08/14 00:44:09;;;;;;;;;;;;;;;19.82;44.59;96349.28;6217609;23;20028;-78
2022/08/14 00:46:37;;;;;;;2.63;2.42;;;;;;;19.77;44.84;96351.88;6216839;23;20263;-77
2022/08/14 00:49:05;;;;;;;3.85;2.50;;;;;;;19.70;45.07;96346.78;6216464;23;20538;-78
2022/08/14 00:51:33;;;;;;;3.47;2.30;;;;;;;19.63;45.42;96343.44;6216430;23;20079;-77
2022/08/14 00:54:06;;;;;;;4.32;2.30;;;;;;;19.58;45.56;96343.41;6217237;23;20346;-78
2022/08/14 00:56:50;;;;;;;3.03;2.47;;;;;;;19.50;45.84;96339.34;6216789;23;20025;-77
2022/08/14 00:59:23;;;;;;;4.05;2.22;;;;;;;19.45;45.80;96338.47;6217941;23;20048;-77
2022/08/14 01:01:53;;;;;;;2.28;2.15;;;;;;;19.42;46.00;96331.81;6217057;23;20047;-77
2022/08/14 01:04:23;;;;;;;2.10;2.00;;;;;;;19.40;45.95;96330.47;6217391;23;20044;-77
2022/08/14 01:07:10;;;;;;;2.58;2.38;;;;;;;19.40;46.00;96325.19;6216475;23;20052;-77
2022/08/14 01:09:41;;;;;;;2.95;2.10;;;;;;;19.39;45.96;96313.78;6218087;23;20465;-78
2022/08/14 01:12:12;;;;;;;2.90;2.38;;;;;;;19.35;46.30;96317.97;6218026;23;20032;-78
2022/08/14 01:14:54;;;;;;;3.42;2.35;;;;;;;19.29;46.18;96309.16;6229879;23;20055;-79
2022/08/14 01:21:02;;;;;;;2.80;2.60;;;;;;;19.25;46.22;96308.06;6228936;23;20075;-81
2022/08/14 01:23:09;;;;;;;3.75;2.70;;;;;;;19.21;46.54;96295.56;6228881;23;20016;-81
2022/08/14 01:25:43;;;;;;;2.58;2.38;;;;;;;19.21;46.40;96291.06;6229191;23;20417;-79
2022/08/14 01:28:12;;;;;;;4.40;2.50;;;;;;;19.23;46.57;96288.19;6229846;23;20017;-78
2022/08/14 01:31:01;;;;;;;2.60;2.40;;;;;;;19.25;46.41;96289.53;6227511;23;20024;-78
2022/08/14 01:33:29;;;;;;;2.33;2.00;;;;;;;19.31;46.43;96288.56;6228841;23;20032;-79
2022/08/14 01:36:19;;;;;;;3.17;2.42;;;;;;;19.32;46.20;96289.38;6228330;23;20075;-80
2022/08/14 01:38:55;;;;;;;;;;;;;;;19.37;46.07;96293.91;6227762;23;20086;-82
2022/08/14 01:41:24;;;;;;;2.60;2.40;;;;;;;19.32;46.16;96287.50;6225840;23;19923;-79
2022/08/14 01:44:00;;;;;;;3.63;2.40;;;;;;;19.30;46.54;96278.22;6226617;23;20048;-79
2022/08/14 01:46:31;;;;;;;2.17;2.08;;;;;;;19.33;46.83;96289.13;6227311;23;20017;-79
2022/08/14 01:49:05;;;;;;;2.45;2.25;;;;;;;19.35;46.42;96284.41;6227005;23;20020;-79
2022/08/14 01:51:34;;;;;;;2.60;2.40;;;;;;;19.32;46.40;96282.22;6225562;23;20104;-78
2022/08/14 01:54:08;;;;;;;2.55;2.22;;;;;;;19.30;46.61;96279.03;6226205;23;20473;-78
2022/08/14 01:56:37;;;;;;;4.60;2.13;;;;;;;19.29;46.37;96281.94;6227301;23;20397;-78
2022/08/14 01:59:07;;;;;;;2.10;1.90;;;;;;;19.22;46.77;96279.47;6227524;23;20076;-77
2022/08/14 02:01:37;;;;;;;2.75;2.00;;;;;;;19.15;46.76;96276.19;6226762;23;20073;-78
2022/08/14 02:04:26;;;;;;;2.72;2.30;;;;;;;19.08;46.76;96280.84;6225426;23;20047;-79
2022/08/14 02:07:14;;;;;;;3.03;2.30;;;;;;;19.06;46.96;96277.66;6225921;23;20358;-77
2022/08/14 02:09:43;;;;;;;2.33;2.00;;;;;;;19.07;46.96;96280.06;6225275;23;20040;-79
2022/08/14 02:12:23;;;;;;;2.50;2.28;;;;;;;19.07;47.00;96273.97;6224454;23;20017;-79
2022/08/14 02:14:55;;;;;;;2.17;2.08;;;;;;;19.06;47.07;96269.72;6224593;23;20028;-79
2022/08/14 02:17:29;;;;;;;3.38;2.45;;;;;;;19.02;47.17;96273.88;6224224;23;20020;-79
2022/08/14 02:19:58;;;;;;;2.42;2.10;;;;;;;18.99;47.33;96272.53;6223970;23;20030;-82
2022/08/14 02:22:26;;;;;;;2.30;2.10;;;;;;;18.96;47.23;96270.38;6223725;23;20020;-78
2022/08/14 02:25:01;;;;;;;2.30;2.10;;;;;;;18.92;47.52;96263.97;6224012;23;20033;-80
2022/08/14 02:27:29;;;;;;;3.08;2.05;;;;;;;18.91;47.58;96265.84;6227046;23;20025;-78
2022/08/14 02:30:16;;;;;;;4.43;2.25;;;;;;;18.88;47.38;96247.78;6225386;23;20021;-82
2022/08/14 02:32:44;;;;;;;4.50;2.30;;;;;;;18.80;47.67;96250.84;6225674;23;20028;-81
2022/08/14 02:35:17;;;;;;;3.08;2.53;;;;;;;18.71;47.93;96249.63;6226789;23;20541;-80
2022/08/14 02:37:45;;;;;;;3.15;2.67;;;;;;;18.66;47.98;96257.50;6226361;23;20074;-79
2022/08/14 02:40:17;;;;;;;3.30;2.65;;;;;;;18.61;48.29;96249.50;6225488;23;20090;-80
2022/08/14 02:42:45;;;;;;;2.25;2.10;;;;;;;18.58;48.17;96249.97;6225109;23;20020;-80
2022/08/14 02:45:24;;;;;;;2.60;2.40;;;;;;;18.53;48.58;96248.84;6224816;23;20024;-79
2022/08/14 02:48:06;;;;;;;2.75;2.55;;;;;;;18.53;48.50;96242.75;6225465;23;20032;-78
2022/08/14 02:50:54;;;;;;;2.80;2.60;;;;;;;18.52;48.55;96231.41;6223805;23;20016;-79
2022/08/14 02:53:21;;;;;;;2.55;2.40;;;;;;;18.48;48.59;96227.66;6224399;23;20511;-78
2022/08/14 02:55:50;;;;;;;3.20;2.35;;;;;;;18.46;48.75;96221.78;6225865;23;20044;-82
2022/08/14 02:58:20;;;;;;;2.45;2.25;;;;;;;18.45;48.60;96225.47;6227106;23;20021;-80
2022/08/14 03:00:57;;;;;;;3.83;2.60;;;;;;;18.41;48.99;96208.53;6227105;23;20040;-78
2022/08/14 03:03:25;;;;;;;2.75;2.55;;;;;;;18.37;48.68;96214.53;6227870;23;20029;-81
2022/08/14 03:05:53;;;;;;;3.65;2.55;;;;;;;18.34;48.86;96205.22;6228284;23;20096;-82
2022/08/14 03:08:22;;;;;;;9.30;3.10;;;;;;;18.35;49.02;96204.19;6227870;23;20076;-79
2022/08/14 03:10:53;;;;;;;2.58;2.38;;;;;;;18.37;48.95;96201.31;6226290;23;20039;-80
2022/08/14 03:13:24;;;;;;;2.42;2.22;;;;;;;18.41;49.04;96203.25;6226900;23;20036;-79
2022/08/14 03:15:52;;;;;;;3.50;2.92;;;;;;;18.44;48.90;96204.59;6225615;23;20112;-79
2022/08/14 03:18:24;;;;;;;3.08;2.75;;;;;;;18.43;48.90;96198.53;6225187;23;20095;-82
2022/08/14 03:21:01;;;;;;;2.67;2.47;;;;;;;18.41;48.89;96190.03;6225588;23;20044;-82
2022/08/14 03:23:34;;;;;;;2.20;2.10;;;;;;;18.46;48.99;96195.38;6226240;23;20407;-81
2022/08/14 03:26:08;;;;;;;2.65;2.45;;;;;;;18.53;48.93;96190.72;6225541;23;20431;-78
2022/08/14 03:28:48;;;;;;;3.30;3.00;;;;;;;18.58;48.98;96199.78;6222942;23;20080;-80
2022/08/14 03:31:20;;;;;;;4.45;3.55;;;;;;;18.57;48.86;96198.19;6223715;23;20454;-78
2022/08/14 03:33:52;;;;;;;3.58;3.28;;;;;;;18.51;48.73;96192.03;6225620;23;20024;-78
2022/08/14 03:36:22;;;;;;;2.50;2.30;;;;;;;18.47;48.69;96186.41;6225722;23;20020;-77
2022/08/14 03:39:11;;;;;;;2.67;2.35;;;;;;;18.40;49.03;96185.78;6223860;23;20078;-79
2022/08/14 03:41:53;;;;;;;5.55;2.40;;;;;;;18.36;49.05;96187.31;6223415;23;20452;-78
2022/08/14 03:44:22;;;;;;;2.65;2.00;;;;;;;18.32;48.86;96187.00;6224423;23;20028;-79
2022/08/14 03:47:10;;;;;;;4.47;2.50;;;;;;;18.30;49.02;96186.44;6224045;23;20031;-81
2022/08/14 03:49:39;;;;;;;4.15;2.42;;;;;;;18.31;49.05;96176.69;6224117;23;20099;-79
2022/08/14 03:52:10;;;;;;;5.57;2.90;;;;;;;18.31;49.15;96177.47;6224643;23;20027;-80
2022/08/14 03:54:58;;;;;;;3.47;2.53;;;;;;;18.28;49.22;96166.59;6223980;23;20112;-78
2022/08/14 03:57:31;;;;;;;4.05;2.80;;;;;;;18.26;49.29;96166.03;6223925;23;20024;-79
2022/08/14 04:00:04;;;;;;;3.28;2.97;;;;;;;18.23;49.10;96161.22;6224950;23;20028;-80
2022/08/14 04:02:35;;;;;;;4.78;2.75;;;;;;;18.20;49.27;96156.44;6225665;23;20032;-80
2022/08/14 04:05:09;;;;;;;5.20;3.78;;;;;;;18.17;49.47;96152.44;6225693;23;20051;-79
2022/08/14 04:07:40;;;;;;;3.87;2.90;;;;;;;18.16;49.36;96156.13;6224874;23;20016;-80
2022/08/14 04:10:28;;;;;;;5.00;2.67;;;;;;;18.14;49.49;96149.47;6224124;23;20090;-79
2022/08/14 04:13:01;;;;;;;3.05;2.75;;;;;;;18.12;49.48;96155.00;6224576;23;20047;-82
2022/08/14 04:15:31;;;;;;;4.93;2.85;;;;;;;18.14;49.48;96154.75;6224431;23;20051;-80
2022/08/14 04:18:19;;;;;;;3.85;2.85;;;;;;;18.15;49.48;96146.59;6224165;23;20027;-81
2022/08/14 04:20:47;;;;;;;2.95;2.67;;;;;;;18.15;49.61;96148.44;6223252;23;20457;-78
2022/08/14 04:23:22;;;;;;;3.53;3.15;;;;;;;18.12;49.67;96147.06;6223282;23;20024;-79
2022/08/14 04:26:00;;;;;;;4.28;3.03;;;;;;;18.10;49.67;96147.34;6222858;23;20048;-79
2022/08/14 04:28:30;;;;;;;5.13;2.80;;;;;;;18.07;49.97;96150.44;6221568;23;20027;-77
2022/08/14 04:31:18;;;;;;;3.53;3.20;;;;;;;18.08;49.94;96152.06;6221219;23;20108;-78
2022/08/14 04:34:06;;;;;;;3.63;3.28;;;;;;;18.10;49.95;96138.59;6220396;23;20056;-77
2022/08/14 04:43:34;;;;;;;3.42;2.65;;;;;;;18.09;50.14;96137.81;6222163;23;20031;-79
2022/08/14 04:45:00;;;;;;;3.40;3.13;;;;;;;18.22;50.34;96143.81;6222422;23;20028;-79
2022/08/14 04:50:20;;;;;;;4.60;3.90;;;;;;;18.27;49.85;96138.59;6222439;23;20328;-76
2022/08/14 04:53:07;;;;;;;3.50;3.20;;;;;;;18.19;50.33;96131.06;6222200;23;20021;-78
2022/08/14 04:55:37;;;;;;;4.97;3.15;;;;;;;18.14;50.35;96138.91;6221794;23;20024;-77
2022/08/14 04:58:05;;;;;;;5.10;3.25;;;;;;;18.14;50.64;96141.56;6222359;23;20024;-77
2022/08/14 05:00:34;;;;;;;3.63;3.28;;;;;;;18.18;51.14;96150.59;6221712;23;20023;-77
2022/08/14 05:03:02;;;;;;;3.90;3.60;;;;;;;18.25;50.57;96151.22;6223362;23;20024;-77
2022/08/14 05:05:34;;;;;;;3.88;3.58;;;;;;;18.30;50.21;96148.66;6222017;23;20017;-78
2022/08/14 05:08:11;;;;;;;3.78;3.47;;;;;;;18.35;50.44;96140.81;6220916;23;20531;-78
2022/08/14 05:11:01;;;;;;;4.88;3.97;;;;;;;18.37;50.03;96140.59;6220285;23;20017;-79
2022/08/14 05:13:31;;;;;;;5.70;3.85;;;;;;;18.42;50.36;96144.09;6222984;23;20024;-79
2022/08/14 05:16:20;;;;;;;3.83;3.53;;;;;;;18.47;50.20;96144.16;6223672;23;20052;-78
2022/08/14 05:18:48;;;;;;;4.00;3.57;;;;;;;18.46;49.81;96142.56;6224360;23;20017;-81
2022/08/14 05:21:36;;;;;;;4.43;3.70;;;;;;;18.48;50.11;96145.78;6223251;23;20031;-77
2022/08/14 05:24:23;;;;;;;4.07;3.67;;;;;;;18.52;49.94;96138.97;6222864;23;20498;-79
2022/08/14 05:26:51;;;;;;;4.10;3.80;;;;;;;18.56;49.55;96138.47;6224268;23;20051;-78
2022/08/14 05:29:19;;;;;;;4.43;4.03;;;;;;;18.60;49.68;96145.66;6224555;23;20472;-79
2022/08/14 05:31:49;;;;;;;4.22;3.83;;;;;;;18.66;49.74;96143.91;6223239;23;20020;-80
2022/08/14 05:34:29;;;;;;;5.13;4.60;;;;;;;18.66;49.22;96151.81;6222868;23;20071;-79
2022/08/14 05:36:59;;;;;;;4.47;4.07;;;;;;;18.67;49.61;96156.03;6224539;23;20048;-79
2022/08/14 05:39:29;;;;;;;5.35;4.20;;;;;;;18.70;49.48;96150.28;6222251;23;20017;-78
2022/08/14 05:41:58;;;;;;;7.18;4.40;;;;;;;18.70;49.57;96147.66;6223216;23;20021;-77
2022/08/14 05:44:27;;;;;;;4.70;4.18;;;;;;;18.66;50.02;96147.31;6222605;23;20024;-78
2022/08/14 05:46:58;;;;;;;4.88;3.65;;;;;;;18.69;50.27;96146.03;6223287;23;20483;-77
2022/08/14 05:49:27;;;;;;;4.00;3.70;;;;;;;18.76;50.21;96146.69;6222018;23;20047;-79
2022/08/14 05:52:00;;;;;;;5.85;4.45;;;;;;;18.80;50.23;96147.78;6215567;23;20017;-76
2022/08/14 05:54:29;;;;;;;4.40;4.00;;;;;;;18.81;50.49;96154.69;6215411;23;20047;-75
2022/08/14 05:57:03;;;;;;;4.90;4.25;;;;;;;18.84;50.54;96143.63;6216127;23;20094;-76
2022/08/14 05:59:30;;;;;;;4.05;3.75;;;;;;;18.91;50.61;96146.91;6215940;23;20027;-76
2022/08/14 06:02:07;;;;;;;5.25;4.22;;;;;;;18.99;50.27;96158.88;6215328;23;20020;-76
2022/08/14 06:04:36;;;;;;;5.82;4.13;;;;;;;19.04;50.23;96147.56;6215969;23;20021;-76
2022/08/14 06:07:04;;;;;;;4.90;4.50;;;;;;;19.09;50.35;96158.22;6215853;23;20032;-76
2022/08/14 06:09:32;;;;;;;5.32;4.25;;;;;;;19.16;50.35;96158.03;6215515;23;20024;-76
2022/08/14 06:12:08;;;;;;;4.75;4.28;;;;;;;19.25;50.22;96159.19;6215753;23;20144;-76
2022/08/14 06:14:35;;;;;;;4.68;4.18;;;;;;;19.32;50.23;96160.56;6216485;23;20028;-76
2022/08/14 06:17:04;;;;;;;4.32;3.95;;;;;;;19.40;50.05;96150.63;6216399;23;20096;-77
2022/08/14 06:19:33;;;;;;;4.70;4.30;;;;;;;19.47;50.09;96152.00;6215774;23;20389;-76
2022/08/14 06:22:00;;;;;;;4.93;4.22;;;;;;;19.57;49.88;96146.03;6215046;23;20048;-77
2022/08/14 06:24:29;;;;;;;5.88;4.57;;;;;;;19.67;50.01;96148.75;6215440;23;20027;-76
2022/08/14 06:27:02;;;;;;;5.80;4.43;;;;;;;19.80;50.03;96154.72;6215907;23;20027;-76
2022/08/14 06:29:33;;;;;;;5.45;3.85;;;;;;;19.91;49.81;96148.47;6215699;23;20017;-76
2022/08/14 06:32:03;;;;;;;4.18;3.78;;;;;;;20.03;49.49;96149.13;6215659;23;20020;-77
2022/08/14 06:34:51;;;;;;;5.10;4.60;;;;;;;20.17;49.56;96144.97;6214995;23;20052;-77
2022/08/14 06:37:42;;;;;;;6.60;4.38;;;;;;;20.32;49.24;96146.16;6217409;23;20345;-77
2022/08/14 06:40:11;;;;;;;4.95;4.55;;;;;;;20.44;49.18;96138.78;6217331;23;20404;-76
2022/08/14 06:42:55;;;;;;;4.28;3.88;;;;;;;20.57;49.04;96133.09;6216121;23;20024;-76
2022/08/14 06:45:26;;;;;;;6.10;4.43;;;;;;;20.69;48.90;96135.53;6215512;23;20028;-76
2022/08/14 06:47:54;;;;;;;4.25;3.90;;;;;;;20.81;48.51;96134.53;6215003;23;20099;-76
2022/08/14 06:50:29;;;;;;;5.93;4.35;;;;;;;20.94;48.30;96136.69;6215105;23;20023;-77
2022/08/14 06:52:59;;;;;;;4.55;3.75;;;;;;;21.06;48.13;96131.19;6214878;23;20075;-76
2022/08/14 06:55:27;;;;;;;5.80;4.47;;;;;;;21.17;48.15;96122.22;6215547;23;20392;-76
2022/08/14 06:57:56;;;;;;;4.13;3.83;;;;;;;21.29;47.79;96117.44;6215297;23;20028;-76
2022/08/14 07:00:27;;;;;;;5.78;4.60;;;;;;;21.42;47.64;96116.19;6214827;23;20477;-77
2022/08/14 07:05:46;;;;;;;5.13;4.18;;;;;;;21.67;46.75;96111.97;6214642;23;20028;-76
2022/08/14 07:08:27;;;;;;;4.22;3.83;;;;;;;21.80;46.83;96114.91;6215215;23;20024;-76
2022/08/14 07:10:59;;;;;;;3.58;3.28;;;;;;;21.93;46.63;96110.13;6215064;23;20404;-77
2022/08/14 07:13:28;;;;;;;4.10;3.70;;;;;;;22.04;46.19;96103.78;6215379;23;20107;-76
2022/08/14 07:15:59;;;;;;;4.05;3.70;;;;;;;22.16;46.26;96098.19;6215005;23;20028;-76
2022/08/14 07:18:34;;;;;;;4.13;3.72;;;;;;;22.29;46.10;96097.66;6215187;23;20067;-76
2022/08/14 07:21:05;;;;;;;7.82;4.47;;;;;;;22.43;45.77;96087.25;6214388;23;20016;-77
2022/08/14 07:23:34;;;;;;;5.18;4.35;;;;;;;22.56;45.29;96080.56;6215074;23;20083;-76
2022/08/14 07:26:07;;;;;;;6.03;3.75;;;;;;;22.71;44.66;96075.19;6214756;23;20063;-77
2022/08/14 07:28:39;;;;;;;5.45;4.65;;;;;;;22.85;44.82;96080.75;6215123;23;20025;-76
2022/08/14 07:31:12;;;;;;;4.25;3.85;;;;;;;22.99;44.64;96071.09;6214348;23;20067;-76
2022/08/14 07:33:45;;;;;;;3.72;3.42;;;;;;;23.14;43.70;96078.22;6215197;23;20024;-77
2022/08/14 07:36:21;;;;;;;4.47;3.47;;;;;;;23.29;42.82;96081.88;6214780;23;20056;-76
2022/08/14 07:38:57;;;;;;;4.78;2.92;;;;;;;23.41;41.63;96075.13;6215085;23;20063;-77
2022/08/14 07:41:25;;;;;;;5.65;3.03;;;;;;;23.56;40.76;96062.81;6215006;23;20407;-77
2022/08/14 07:44:00;;;;;;;3.85;2.67;;;;;;;23.72;39.91;96066.91;6214786;23;20031;-76
2022/08/14 07:46:48;;;;;;;4.18;3.13;;;;;;;23.88;39.87;96061.50;6214568;23;20028;-76
2022/08/14 07:49:16;;;;;;;3.78;3.33;;;;;;;24.02;39.50;96059.78;6215191;23;20021;-77
2022/08/14 07:51:46;;;;;;;3.20;2.90;;;;;;;24.17;39.47;96067.63;6214360;23;20075;-77
2022/08/14 07:54:16;;;;;;;3.70;2.90;;;;;;;24.31;39.30;96072.28;6215111;23;20099;-77
2022/08/14 07:56:55;;;;;;;3.75;3.05;;;;;;;24.47;38.45;96071.84;6214669;23;20472;-77
2022/08/14 07:59:26;;;;;;;4.30;3.05;;;;;;;24.62;38.13;96070.94;6214998;23;20025;-77
2022/08/14 08:02:11;;;;;;;3.00;2.80;;;;;;;24.79;37.51;96072.31;6214565;23;20017;-77
2022/08/14 08:04:51;;;;;;;2.88;2.67;;;;;;;24.95;37.17;96071.06;6215134;23;20027;-77
2022/08/14 08:07:24;;;;;;;3.25;2.60;;;;;;;25.12;36.49;96072.44;6214135;23;20047;-77
2022/08/14 08:09:58;;;;;;;2.92;2.60;;;;;;;25.25;36.09;96077.91;6215278;23;20028;-77
2022/08/14 08:12:29;;;;;;;4.38;2.78;;;;;;;25.38;35.96;96071.03;6214962;23;20021;-77
2022/08/14 08:15:01;;;;;;;2.67;2.47;;;;;;;25.53;35.90;96066.56;6214716;23;20032;-77
2022/08/14 08:17:36;;;;;;;2.75;2.47;;;;;;;25.68;35.95;96066.31;6215070;23;20020;-77
2022/08/14 08:20:15;;;;;;;2.60;2.40;;;;;;;25.82;34.42;96063.69;6214480;23;20017;-77
2022/08/14 08:22:49;;;;;;;2.88;2.58;;;;;;;25.93;34.05;96059.00;6214765;23;20052;-77
2022/08/14 08:25:23;;;;;;;3.05;2.75;;;;;;;26.06;34.52;96060.91;6214870;23;20035;-77
2022/08/14 08:27:58;;;;;;;2.80;2.60;;;;;;;26.18;34.18;96061.22;6229538;23;20024;-77
2022/08/14 08:30:27;;;;;;;3.55;2.50;;;;;;;26.30;34.03;96058.06;6234106;23;20024;-78
2022/08/14 08:32:57;;;;;;;2.40;2.20;;;;;;;26.40;33.71;96068.56;6222928;23;20412;-77
2022/08/14 08:35:27;;;;;;;3.75;2.45;;;;;;;26.52;33.01;96070.75;6214850;23;20047;-77
2022/08/14 08:38:18;;;;;;;2.30;2.10;;;;;;;26.68;32.44;96073.97;6214348;23;20020;-77
2022/08/14 08:41:06;;;;;;;3.63;1.97;;;;;;;26.83;32.13;96080.88;6213805;23;20027;-77
2022/08/14 08:43:39;;;;;;;3.15;2.30;;;;;;;26.95;32.00;96086.53;6214766;23;20028;-78
2022/08/14 08:46:18;;;;;;;2.67;2.28;;;;;;;27.05;31.29;96078.28;6226081;23;20354;-78
2022/08/14 08:48:52;;;;;;;4.18;2.50;;;;;;;27.13;31.45;96066.88;6239110;23;20044;-77
2022/08/14 08:51:22;;;;;;;3.88;2.17;;;;;;;27.25;31.98;96060.25;6231962;23;20098;-77
2022/08/14 08:54:03;;;;;;;2.47;2.15;;;;;;;27.40;31.48;96064.44;6216017;23;20028;-77
2022/08/14 08:56:39;;;;;;;2.45;2.17;;;;;;;27.52;30.81;96070.06;6214730;23;20024;-77
2022/08/14 08:59:19;;;;;;;2.92;2.30;;;;;;;27.63;31.00;96070.63;6214316;23;20024;-77
2022/08/14 09:01:51;;;;;;;3.50;2.20;;;;;;;27.73;30.51;96065.03;6214398;23;20056;-78
2022/08/14 09:04:24;;;;;;;3.03;2.20;;;;;;;27.85;30.43;96059.91;6214588;23;20024;-77
2022/08/14 09:06:52;;;;;;;4.60;2.65;;;;;;;27.98;30.55;96054.78;6214531;23;20103;-78
2022/08/14 09:09:50;;;;;;;2.90;2.15;;;;;;;28.08;29.97;96049.19;6214543;23;20028;-78
2022/08/14 09:12:27;;;;;;;2.67;2.47;;;;;;;28.18;29.93;96054.25;6214798;23;20385;-77
2022/08/14 09:15:00;;;;;;;2.08;1.88;;;;;;;28.27;29.03;96056.97;6215059;23;20025;-77
2022/08/14 09:17:28;;;;;;;3.30;2.22;;;;;;;28.30;29.44;96061.75;6214547;23;20030;-78
2022/08/14 09:19:57;;;;;;;2.42;2.22;;;;;;;28.37;29.15;96062.09;6214118;23;20060;-79
2022/08/14 09:22:30;;;;;;;2.45;2.30;;;;;;;28.45;29.39;96058.66;6214357;23;20044;-77
2022/08/14 09:25:05;;;;;;;3.47;2.20;;;;;;;28.53;29.04;96060.63;6214550;23;20024;-78
2022/08/14 09:27:34;;;;;;;3.25;2.33;;;;;;;28.60;28.82;96054.78;6214305;23;20024;-77
2022/08/14 09:30:01;;;;;;;2.22;2.13;;;;;;;28.69;28.63;96063.66;6215411;23;20067;-77
2022/08/14 09:33:03;;;;;;;2.97;2.40;;;;;;;28.76;28.46;96047.09;6215921;23;20356;-78
2022/08/14 09:35:49;;;;;;;2.10;1.90;;;;;;;28.83;28.40;96042.06;6216671;23;20099;-79
2022/08/14 09:38:32;;;;;;;3.65;2.33;;;;;;;28.91;28.62;96040.50;6216474;23;20024;-78
2022/08/14 09:41:11;;;;;;;2.58;2.38;;;;;;;29.00;28.32;96035.94;6216188;23;20028;-79
2022/08/14 09:43:46;;;;;;;2.50;2.30;;;;;;;29.08;28.22;96042.41;6216727;23;20025;-79
2022/08/14 09:46:17;;;;;;;3.92;2.67;;;;;;;29.10;28.61;96029.47;6216719;23;20021;-80
2022/08/14 09:48:58;;;;;;;2.42;2.28;;;;;;;29.14;28.19;96036.59;6216007;23;20048;-78
2022/08/14 09:51:26;;;;;;;2.50;2.30;;;;;;;29.15;27.95;96030.13;6215710;23;20040;-79
2022/08/14 09:54:01;;;;;;;3.28;2.33;;;;;;;29.11;27.73;96026.50;6216271;23;20071;-79
2022/08/14 09:56:51;;;;;;;2.53;2.33;;;;;;;29.12;27.96;96017.31;6217093;23;20025;-80
2022/08/14 09:59:26;;;;;;;4.05;2.30;;;;;;;29.15;27.69;96010.53;6216511;23;20024;-79
2022/08/14 10:01:58;;;;;;;3.95;2.38;;;;;;;29.18;28.36;96004.53;6215926;23;20527;-79
2022/08/14 10:04:27;;;;;;;2.90;2.13;;;;;;;29.24;28.04;95997.13;6216307;23;20119;-79
2022/08/14 10:07:02;;;;;;;2.92;2.65;;;;;;;29.27;28.12;96001.84;6216613;23;20460;-79
2022/08/14 10:09:30;;;;;;;2.42;1.85;;;;;;;29.30;28.16;96009.25;6216457;23;20025;-79
2022/08/14 10:12:05;;;;;;;2.22;2.10;;;;;;;29.35;28.05;95999.16;6215889;23;20055;-79
2022/08/14 10:14:45;;;;;;;2.85;2.47;;;;;;;29.42;28.41;96006.72;6216020;23;20095;-78
2022/08/14 10:17:25;;;;;;;3.00;2.58;;;;;;;29.41;27.62;95999.78;6216023;23;20031;-78
2022/08/14 10:19:54;;;;;;;2.60;2.40;;;;;;;29.43;27.90;96000.28;6216802;23;20100;-79
2022/08/14 10:22:27;;;;;;;2.28;2.17;;;;;;;29.49;28.14;95998.19;6215905;23;20020;-78
2022/08/14 10:25:16;;;;;;;3.03;2.10;;;;;;;29.58;27.76;96002.47;6215601;23;20120;-78
2022/08/14 10:27:48;;;;;;;3.22;2.38;;;;;;;29.69;27.47;95994.84;6215861;23;20047;-79
2022/08/14 10:30:23;;;;;;;2.38;2.17;;;;;;;29.75;26.73;96007.03;6215325;23;20109;-79
2022/08/14 10:32:53;;;;;;;1.92;1.83;;;;;;;29.78;26.98;96000.22;6215323;23;20028;-79
2022/08/14 10:35:22;;;;;;;2.17;2.08;;;;;;;29.82;26.93;95998.47;6215658;23;20136;-80
2022/08/14 10:38:01;;;;;;;3.10;2.10;;;;;;;29.90;26.65;96002.25;6215527;23;20028;-79
2022/08/14 10:40:34;;;;;;;2.38;2.17;;;;;;;29.96;26.98;95996.38;6214720;23;20078;-80
2022/08/14 10:43:20;;;;;;;3.75;2.38;;;;;;;30.04;26.87;95985.91;6215290;23;20095;-79
2022/08/14 10:46:00;;;;;;;2.05;1.95;;;;;;;30.09;26.40;95975.00;6215520;23;20021;-78
2022/08/14 10:48:57;;;;;;;2.60;2.40;;;;;;;30.13;26.61;95983.97;6215063;23;20059;-78
2022/08/14 10:51:25;;;;;;;2.25;2.10;;;;;;;30.18;26.81;95965.75;6214741;23;20052;-79
2022/08/14 10:53:57;;;;;;;;;;;;;;;30.25;26.60;95965.25;6215976;23;20100;-80
2022/08/14 10:56:32;;;;;;;2.63;2.42;;;;;;;30.24;26.27;95962.88;6215100;23;19923;-79
2022/08/14 10:59:04;;;;;;;2.00;1.90;;;;;;;30.24;26.30;95960.19;6215345;23;20024;-79
2022/08/14 11:01:39;;;;;;;2.22;2.08;;;;;;;30.22;26.04;95960.53;6214448;23;20020;-80
2022/08/14 11:04:27;;;;;;;3.05;2.38;;;;;;;30.23;25.99;95951.34;6215138;23;20028;-78
2022/08/14 11:06:58;;;;;;;2.95;2.40;;;;;;;30.24;25.67;95950.25;6215591;23;20021;-79
2022/08/14 11:09:25;;;;;;;2.40;2.10;;;;;;;30.21;25.17;95958.16;6215759;23;20028;-79
2022/08/14 11:11:59;;;;;;;3.42;2.30;;;;;;;30.11;25.56;95948.53;6214709;23;20464;-80
2022/08/14 11:14:52;;;;;;;4.28;2.30;;;;;;;30.05;25.79;95934.50;6214776;23;20023;-79
2022/08/14 11:17:27;;;;;;;2.10;2.00;;;;;;;30.04;26.05;95932.13;6215321;23;20024;-78
2022/08/14 11:20:00;;;;;;;2.78;2.40;;;;;;;30.05;25.93;95939.09;6214929;23;20028;-79
2022/08/14 11:22:30;;;;;;;2.85;2.10;;;;;;;30.05;25.93;95917.59;6215125;23;20024;-78
2022/08/14 11:25:19;;;;;;;2.47;2.25;;;;;;;30.10;25.72;95920.06;6214626;23;20027;-79
2022/08/14 11:27:49;;;;;;;2.75;1.85;;;;;;;30.16;25.76;95914.19;6214616;23;20024;-79
2022/08/14 11:30:20;;;;;;;3.25;1.90;;;;;;;30.18;25.57;95911.97;6214696;23;20021;-79
2022/08/14 11:33:08;;;;;;;2.67;2.30;;;;;;;30.17;25.71;95910.41;6214570;23;20037;-79
2022/08/14 11:35:37;;;;;;;2.65;2.45;;;;;;;30.15;25.09;95911.81;6215094;23;20168;-79
2022/08/14 11:38:14;;;;;;;4.13;2.38;;;;;;;30.06;25.29;95903.00;6215406;23;20042;-79
2022/08/14 11:40:44;;;;;;;2.47;2.30;;;;;;;30.02;25.62;95899.38;6214407;23;20077;-79
2022/08/14 11:43:13;;;;;;;2.58;2.45;;;;;;;30.03;25.84;95882.16;6214442;23;20472;-79
2022/08/14 11:45:47;;;;;;;2.30;2.17;;;;;;;30.07;25.73;95889.25;6214816;23;20024;-79
2022/08/14 11:48:17;;;;;;;2.67;2.47;;;;;;;30.13;25.71;95889.84;6215421;23;20020;-79
2022/08/14 11:51:12;;;;;;;4.32;2.20;;;;;;;30.22;25.41;95890.59;6213759;23;20479;-78
2022/08/14 11:56:23;;;;;;;2.50;2.30;;;;;;;30.34;25.24;95904.13;6235062;23;20084;-81
2022/08/14 11:59:00;;;;;;;2.03;1.92;;;;;;;30.42;25.00;95905.22;6243629;23;20017;-81
2022/08/14 12:01:32;;;;;;;2.58;2.38;;;;;;;30.47;25.10;95890.78;6243660;23;20015;-81
2022/08/14 12:04:11;;;;;;;2.70;2.50;;;;;;;30.50;24.85;95876.66;6243509;23;20024;-81
2022/08/14 12:07:25;;;;;;;2.63;2.43;;;;;;;30.52;24.91;95875.22;6244404;23;20031;-83
2022/08/14 12:10:13;;;;;;;2.58;2.38;;;;;;;30.52;24.59;95866.34;6241976;23;20033;-83
2022/08/14 12:19:58;;;;;;;2.92;2.05;;;;;;;30.61;24.74;95883.22;6240866;23;20012;-82
2022/08/14 12:22:57;;;;;;;2.95;2.47;;;;;;;30.66;24.45;95876.88;6241306;23;20008;-83
2022/08/14 12:28:47;;;;;;;3.42;2.03;;;;;;;30.69;23.93;95870.81;6239138;23;20024;-83
2022/08/14 12:31:34;;;;;;;2.58;2.38;;;;;;;30.73;23.72;95869.84;6243291;23;20473;-81
2022/08/14 12:34:41;;;;;;;2.92;2.42;;;;;;;30.79;23.89;95883.88;6197396;23;20013;-83
2022/08/14 12:41:14;;;;;;;2.40;2.20;;;;;;;30.82;23.79;95866.28;6212557;23;20089;-83